Flight Track Log - Related Links

Times and Time Zones

All times are in EST time to prevent confusion due to time zone crossing. See the PDT4207 flight status page for this flight to view local times or setup timezone preferences in your user account.


Time Position Orientation Groundspeed Altitude Reporting Facility
EST Latitude Longitude Course Direction KTS MPH feet Rate Location/Type
Wed 09:42:36 PM 39.9000 -75.2333 311° West 110 127 700  Level Philadelphia TRACON
Wed 09:44:00 PM 39.9000 -75.3167 270° West 157 181 2,800 1,500 Climbing Philadelphia TRACON
Wed 09:45:00 PM 40.0527 -75.4027 323° Northwest  Level FlightAware Approximate
Wed 09:45:00 PM 39.9167 -75.3667 294° West 164 189 4,300  Level Philadelphia TRACON
Wed 09:45:54 PM 39.9500 -75.3833 339° North 139 160 5,700 1,579 Climbing Philadelphia TRACON
Wed 09:46:00 PM 40.1130 -75.4594 303° West  Level FlightAware Approximate
Wed 09:46:54 PM 39.9833 -75.4000 339° North 138 159 7,300  Level Philadelphia TRACON
Wed 09:47:00 PM 40.1745 -75.5117 311° West  Level FlightAware Approximate
Wed 09:47:48 PM 40.0167 -75.4167 339° North 140 161 8,600  Level Philadelphia TRACON
Wed 09:48:00 PM 40.2309 -75.5713 311° West  Level FlightAware Approximate
Wed 09:48:26 PM 40.0378 -75.4369 324° Northwest 141 162 9,000  Level New York Center
Wed 09:49:26 PM 40.0703 -75.4636 328° Northwest 182 209 9,000  Level New York Center
Wed 09:50:26 PM 40.1208 -75.4994 332° Northwest 195 224 9,000 250 Level New York Center
Wed 09:51:26 PM 40.1656 -75.5297 333° Northwest 206 237 9,500 700 Climbing New York Center
Wed 09:52:26 PM 40.2122 -75.5572 336° Northwest 192 221 10,400 950 Climbing New York Center
Wed 09:53:26 PM 40.2683 -75.5667 353° North 180 207 11,400 850 Climbing New York Center
Wed 09:54:26 PM 40.3156 -75.5808 347° North 180 207 12,100 350 Climbing New York Center
Wed 09:55:26 PM 40.3694 -75.5900 353° North 185 213 12,100  Level New York Center
Wed 09:56:26 PM 40.4233 -75.5992 353° North 203 234 12,100  Level New York Center
Wed 09:57:26 PM 40.4811 -75.6114 351° North 209 241 12,100  Level New York Center
Wed 09:58:26 PM 40.5453 -75.6214 353° North 214 246 12,100  Level New York Center
Wed 09:59:26 PM 40.6053 -75.6286 355° North 219 252 12,100  Level New York Center
Wed 10:00:26 PM 40.6653 -75.6436 349° North 219 252 12,100  Level New York Center
Wed 10:01:26 PM 40.7189 -75.6558 350° North 219 252 12,100  Level New York Center
Wed 10:02:26 PM 40.7789 -75.6683 351° North 219 252 12,100 -400 Level New York Center
Wed 10:03:26 PM 40.8447 -75.6894 346° North 219 252 11,300 -900 Descending New York Center
Wed 10:04:26 PM 40.9108 -75.7025 352° North 227 261 10,300 -650 Descending New York Center
Wed 10:05:26 PM 40.9769 -75.7128 353° North 233 268 10,000 -150 Descending New York Center
Wed 10:06:26 PM 41.0389 -75.7256 351° North 233 268 10,000  Level New York Center
Wed 10:07:26 PM 41.0967 -75.7406 349° North 222 255 10,000 50 Level New York Center
Wed 10:08:26 PM 41.1503 -75.7500 352° North 217 250 10,100 50 Climbing New York Center
Wed 10:09:26 PM 41.2081 -75.7656 349° North 217 250 10,100  Level New York Center
Wed 10:10:26 PM 41.2658 -75.7781 351° North 217 250 10,100  Level New York Center
Wed 10:11:26 PM 41.3217 -75.7903 351° North 217 250 10,100  Level New York Center
Wed 10:12:26 PM 41.3794 -75.8031 351° North 217 250 10,100  Level New York Center
Wed 10:13:26 PM 41.4372 -75.8128 353° North 217 250 10,100 -350 Level New York Center
Wed 10:14:26 PM 41.4969 -75.8286 349° North 217 250 9,400 -950 Descending New York Center
Wed 10:15:26 PM 41.5647 -75.8503 347° North 224 258 8,200 -700 Descending New York Center
Wed 10:16:26 PM 41.6244 -75.8686 347° North 217 250 8,000 -100 Descending New York Center
Wed 10:17:26 PM 41.6822 -75.8786 353° North 217 250 8,000  Level New York Center
Wed 10:18:26 PM 41.7364 -75.8828 357° North 217 250 8,000  Level New York Center
Wed 10:19:26 PM 41.7897 -75.8981 348° North 217 250 8,000 -50 Level New York Center
Wed 10:20:26 PM 41.8536 -75.9114 351° North 217 250 7,900 -450 Descending New York Center
Wed 10:21:26 PM 41.9114 -75.9269 349° North 212 244 7,100 -850 Descending New York Center
Wed 10:22:26 PM 41.9758 -75.9292 359° North 218 251 6,200 -950 Descending New York Center
Wed 10:23:26 PM 42.0261 -75.9219 North 212 244 5,200 -1,050 Descending New York Center
Wed 10:24:26 PM 42.0786 -75.9119 North 194 223 4,100 -800 Descending New York Center
Wed 10:25:26 PM 42.1161 -75.9092 North 160 184 3,600 -550 Descending New York Center
Wed 10:26:26 PM 42.1425 -75.9281 332° Northwest 121 139 3,000 -600 Descending New York Center
Wed 10:27:26 PM 42.1667 -75.9467 330° Northwest 103 119 2,400 -446 Descending New York Center
Wed 10:28:27 PM 42.1908 -75.9628 334° Northwest 103 119 2,100 -295 Descending New York Center

Login

Don't have an account? Register now (free) for customized features, flight alerts, and more!